Time;durP1;ratioP1;P1;durP2;ratioP2;P2;SDS_P1;SDS_P2;PMS_P1;PMS_P2;Temp;Humidity;BMP_temperature;BMP_pressure;BME280_temperature;BME280_humidity;BME280_pressure;Samples;Min_cycle;Max_cycle;Signal;HPM_P1;HPM_P2
2021/12/11 00:01:40;;;;;;;50.72;22.30;;;-1.30;99.90;;;;;;6189295;23;20350;-80
2021/12/11 00:04:12;;;;;;;52.10;23.27;;;-1.30;99.90;;;;;;6164127;23;20020;-80
2021/12/11 00:06:47;;;;;;;43.63;20.92;;;-1.30;99.90;;;;;;6163825;23;20060;-81
2021/12/11 00:09:21;;;;;;;50.97;22.38;;;-1.20;99.90;;;;;;6188631;23;20020;-80
2021/12/11 00:11:55;;;;;;;50.63;20.65;;;-1.20;99.90;;;;;;6188617;23;20460;-80
2021/12/11 00:14:22;;;;;;;55.90;23.42;;;-1.20;99.90;;;;;;6192559;23;20017;-80
2021/12/11 00:16:50;;;;;;;50.72;22.25;;;-1.20;99.90;;;;;;6190211;23;20499;-80
2021/12/11 00:19:22;;;;;;;50.72;21.98;;;-1.10;99.90;;;;;;6188421;23;20479;-80
2021/12/11 00:21:48;;;;;;;46.25;22.92;;;-1.20;99.90;;;;;;6187750;23;20017;-80
2021/12/11 00:24:18;;;;;;;41.40;20.50;;;-1.10;99.90;;;;;;6188784;23;20017;-80
2021/12/11 00:26:57;;;;;;;44.85;20.30;;;-1.20;99.90;;;;;;6188391;23;20079;-80
2021/12/11 00:29:25;;;;;;;47.38;21.65;;;-1.20;99.90;;;;;;6214874;23;20025;-80
2021/12/11 00:31:55;;;;;;;50.15;23.80;;;-1.20;99.90;;;;;;6188035;23;20024;-81
2021/12/11 00:34:22;;;;;;;53.95;24.73;;;-1.10;99.90;;;;;;6163347;23;20103;-80
2021/12/11 00:37:02;;;;;;;58.45;24.38;;;-1.10;99.90;;;;;;6188144;23;20016;-80
2021/12/11 00:39:37;;;;;;;40.30;21.33;;;-1.00;99.90;;;;;;6215554;23;20017;-82
2021/12/11 00:42:15;;;;;;;46.85;22.23;;;-1.10;99.90;;;;;;6213631;23;20096;-81
2021/12/11 00:44:49;;;;;;;42.40;18.25;;;-1.20;99.90;;;;;;6188530;23;20028;-81
2021/12/11 00:47:23;;;;;;;39.58;20.60;;;-1.20;99.90;;;;;;6163393;23;20051;-80
2021/12/11 00:49:57;;;;;;;49.10;21.30;;;-1.20;99.90;;;;;;6188110;23;20034;-81
2021/12/11 00:52:34;;;;;;;55.00;22.30;;;-1.20;99.90;;;;;;6187567;23;20083;-80
2021/12/11 00:55:09;;;;;;;60.50;26.88;;;-1.10;99.90;;;;;;6193216;23;20024;-82
2021/12/11 00:57:35;;;;;;;59.50;24.75;;;-1.10;99.90;;;;;;6165712;23;20024;-80
2021/12/11 01:00:10;;;;;;;56.65;25.85;;;-1.10;99.90;;;;;;6189139;23;20052;-81
2021/12/11 01:02:36;;;;;;;52.33;23.25;;;-1.20;99.90;;;;;;6187007;23;20025;-80
2021/12/11 01:05:07;;;;;;;51.45;23.00;;;-1.20;99.90;;;;;;6188508;23;20452;-81
2021/12/11 01:07:33;;;;;;;61.63;23.60;;;-1.30;99.90;;;;;;6213070;23;20067;-80
2021/12/11 01:10:08;;;;;;;45.30;20.38;;;-1.30;99.90;;;;;;6163642;23;20024;-80
2021/12/11 01:12:48;;;;;;;51.22;23.30;;;-1.20;99.90;;;;;;6188139;23;20024;-80
2021/12/11 01:15:24;;;;;;;45.25;19.20;;;-1.20;99.90;;;;;;6188036;23;20025;-81
2021/12/11 01:18:02;;;;;;;37.45;18.17;;;-1.30;99.90;;;;;;6187950;23;20091;-80
2021/12/11 01:20:45;;;;;;;44.53;21.05;;;-1.40;99.90;;;;;;6188099;23;20020;-80
2021/12/11 01:23:28;;;;;;;44.83;21.85;;;-1.50;99.90;;;;;;6187936;23;20032;-81
2021/12/11 01:25:54;;;;;;;51.78;23.23;;;-1.50;99.90;;;;;;6187993;23;20021;-80
2021/12/11 01:28:20;;;;;;;59.78;25.58;;;-1.50;99.90;;;;;;6187649;23;20391;-80
2021/12/11 01:30:46;;;;;;;49.92;21.92;;;-1.40;99.90;;;;;;6187703;23;20020;-81
2021/12/11 01:33:12;;;;;;;42.55;20.20;;;-1.40;99.90;;;;;;6188120;23;20056;-80
2021/12/11 01:35:40;;;;;;;38.67;19.25;;;-1.50;99.90;;;;;;6190262;23;20103;-80
2021/12/11 01:38:19;;;;;;;49.28;23.05;;;-1.60;99.90;;;;;;6191756;23;20028;-80
2021/12/11 01:40:52;;;;;;;37.28;19.17;;;-1.60;99.90;;;;;;6214029;23;20043;-80
2021/12/11 01:43:22;;;;;;;43.53;21.25;;;-1.60;99.90;;;;;;6163699;23;20483;-81
2021/12/11 01:45:51;;;;;;;50.70;22.92;;;-1.60;99.90;;;;;;6187288;23;20025;-80
2021/12/11 01:48:24;;;;;;;58.22;25.27;;;-1.60;99.90;;;;;;6187375;23;20334;-80
2021/12/11 01:51:21;;;;;;;66.35;26.98;;;-1.60;99.90;;;;;;6188351;23;20028;-78
2021/12/11 01:54:03;;;;;;;56.92;24.58;;;-1.60;99.90;;;;;;6212935;23;20356;-78
2021/12/11 01:56:32;;;;;;;61.17;26.92;;;-1.50;99.90;;;;;;6187742;23;20048;-78
2021/12/11 01:59:06;;;;;;;48.35;22.70;;;-1.50;99.90;;;;;;6162792;23;20103;-78
2021/12/11 02:01:35;;;;;;;52.50;22.80;;;-1.60;99.90;;;;;;6187477;23;20455;-78
2021/12/11 02:04:05;;;;;;;71.75;27.65;;;-1.50;99.90;;;;;;6187467;23;20021;-78
2021/12/11 02:06:36;;;;;;;66.32;26.25;;;-1.50;99.90;;;;;;6187468;23;20021;-79
2021/12/11 02:09:35;;;;;;;68.57;28.65;;;-1.50;99.90;;;;;;6187268;23;20031;-79
2021/12/11 02:12:14;;;;;;;88.07;33.05;;;-1.50;99.90;;;;;;6150124;23;20157;-79
2021/12/11 02:14:46;;;;;;;48.72;22.67;;;-1.60;99.90;;;;;;6187732;23;20334;-79
2021/12/11 02:17:30;;;;;;;51.63;23.67;;;-1.60;99.90;;;;;;6191340;23;20052;-79
2021/12/11 02:19:58;;;;;;;70.53;31.05;;;-1.60;99.90;;;;;;6163094;23;20096;-79
2021/12/11 02:22:32;;;;;;;50.78;23.27;;;-1.60;99.90;;;;;;6212351;23;20103;-79
2021/12/11 02:25:03;;;;;;;47.20;25.25;;;-1.70;99.90;;;;;;6187306;23;20025;-79
2021/12/11 02:27:34;;;;;;;41.53;19.40;;;-1.70;99.90;;;;;;6212210;23;20052;-79
2021/12/11 02:30:22;;;;;;;58.20;26.48;;;-1.70;99.90;;;;;;6132638;23;20411;-79
2021/12/11 02:33:19;;;;;;;63.97;29.80;;;-1.80;99.90;;;;;;6156703;23;20021;-79
2021/12/11 02:36:10;;;;;;;69.15;30.02;;;-1.70;99.90;;;;;;6157709;23;20079;-79
2021/12/11 02:38:52;;;;;;;88.63;34.35;;;-1.60;99.90;;;;;;6157712;23;20021;-79
2021/12/11 02:41:31;;;;;;;55.50;25.17;;;-1.50;99.90;;;;;;6157587;23;20036;-79
2021/12/11 02:44:15;;;;;;;61.95;26.35;;;-1.50;99.90;;;;;;6133216;23;20017;-79
2021/12/11 02:46:49;;;;;;;48.03;22.00;;;-1.60;99.90;;;;;;6133078;23;20031;-79
2021/12/11 02:49:30;;;;;;;54.03;23.63;;;-1.60;99.90;;;;;;6157216;23;20029;-79
2021/12/11 02:52:08;;;;;;;58.78;25.58;;;-1.70;99.90;;;;;;6157519;23;20024;-79
2021/12/11 02:54:47;;;;;;;56.90;27.25;;;-1.70;99.90;;;;;;6157382;23;20083;-79
2021/12/11 02:57:26;;;;;;;84.28;34.38;;;-1.60;99.90;;;;;;6133340;23;20103;-79
2021/12/11 03:00:12;;;;;;;72.35;31.15;;;-1.40;99.90;;;;;;6162876;23;20021;-79
2021/12/11 03:02:49;;;;;;;76.35;31.48;;;-1.40;99.90;;;;;;6157656;23;20017;-79
2021/12/11 03:05:22;;;;;;;74.70;30.42;;;-1.40;99.90;;;;;;6157107;23;20035;-79
2021/12/11 03:07:53;;;;;;;69.95;31.98;;;-1.40;99.90;;;;;;6157669;23;20074;-79
2021/12/11 03:10:24;;;;;;;74.55;32.70;;;-1.50;99.90;;;;;;6184022;23;20029;-79
2021/12/11 03:12:52;;;;;;;75.45;31.73;;;-1.50;99.90;;;;;;6132574;23;20031;-79
2021/12/11 03:15:18;;;;;;;98.07;37.80;;;-1.50;99.90;;;;;;6157791;23;20127;-80
2021/12/11 03:17:48;;;;;;;107.88;38.75;;;-1.50;99.90;;;;;;6157203;23;20159;-80
2021/12/11 03:20:17;;;;;;;74.22;32.63;;;-1.50;99.90;;;;;;6157330;23;20326;-80
2021/12/11 03:22:52;;;;;;;91.15;36.28;;;-1.50;99.90;;;;;;6157509;23;20017;-79
2021/12/11 03:25:26;;;;;;;89.25;35.60;;;-1.50;99.90;;;;;;6158297;23;20036;-80
2021/12/11 03:27:52;;;;;;;87.53;35.95;;;-1.50;99.90;;;;;;6161935;23;20084;-79
2021/12/11 03:30:26;;;;;;;82.18;35.72;;;-1.50;99.90;;;;;;6189148;23;20032;-79
2021/12/11 03:32:57;;;;;;;87.10;35.13;;;-1.50;99.90;;;;;;6214402;23;20460;-78
2021/12/11 03:35:25;;;;;;;88.80;36.88;;;-1.60;99.90;;;;;;6214377;23;20024;-79
2021/12/11 03:37:57;;;;;;;69.57;30.15;;;-1.50;99.90;;;;;;6189190;23;20357;-79
2021/12/11 03:40:24;;;;;;;77.25;34.28;;;-1.60;99.90;;;;;;6165506;23;20450;-79
2021/12/11 03:42:53;;;;;;;83.22;32.53;;;-1.60;99.90;;;;;;6194098;23;20134;-80
2021/12/11 03:45:27;;;;;;;83.95;36.08;;;-1.60;99.90;;;;;;6190147;23;20028;-79
2021/12/11 03:47:57;;;;;;;72.70;30.65;;;-1.60;99.90;;;;;;6213645;23;20417;-79
2021/12/11 03:50:24;;;;;;;81.38;33.58;;;-1.50;99.90;;;;;;6164280;23;20107;-79
2021/12/11 03:52:51;;;;;;;66.80;30.33;;;-1.60;99.90;;;;;;6188343;23;20020;-79
2021/12/11 03:55:23;;;;;;;68.10;31.60;;;-1.50;99.90;;;;;;6188496;23;20111;-79
2021/12/11 03:57:57;;;;;;;88.03;36.45;;;-1.50;99.90;;;;;;6188013;23;20498;-79
2021/12/11 04:00:37;;;;;;;101.75;39.10;;;-1.40;99.90;;;;;;6215277;23;20031;-79
2021/12/11 04:03:06;;;;;;;82.45;38.30;;;-1.20;99.90;;;;;;6188468;23;20091;-79
2021/12/11 04:05:38;;;;;;;81.90;37.40;;;-1.20;99.90;;;;;;6188437;23;20460;-78
2021/12/11 04:08:07;;;;;;;81.90;37.53;;;-1.20;99.90;;;;;;6213681;23;20127;-79
2021/12/11 04:10:33;;;;;;;89.93;36.83;;;-1.20;99.90;;;;;;6188252;23;20059;-79
2021/12/11 04:13:02;;;;;;;96.40;37.05;;;-1.20;99.90;;;;;;6162587;23;20028;-80
2021/12/11 04:15:39;;;;;;;74.30;34.03;;;-1.30;99.90;;;;;;6188237;23;20021;-79
2021/12/11 04:18:09;;;;;;;80.60;34.25;;;-1.40;99.90;;;;;;6188456;23;20017;-79
2021/12/11 04:20:45;;;;;;;83.32;35.97;;;-1.40;99.90;;;;;;6188244;23;20032;-79
2021/12/11 04:23:16;;;;;;;86.53;35.90;;;-1.40;99.90;;;;;;6164097;23;20048;-80
2021/12/11 04:25:45;;;;;;;88.20;37.30;;;-1.40;99.90;;;;;;6166163;23;20025;-79
2021/12/11 04:28:16;;;;;;;100.45;39.80;;;-1.40;99.90;;;;;;6213759;23;20103;-79
2021/12/11 04:30:43;;;;;;;104.47;42.72;;;-1.20;99.90;;;;;;6187941;23;20031;-79
2021/12/11 04:33:16;;;;;;;114.20;43.80;;;-1.00;99.90;;;;;;6188384;23;20025;-79
2021/12/11 04:35:44;;;;;;;104.50;43.55;;;-1.00;99.90;;;;;;6187952;23;20344;-79
2021/12/11 04:38:12;;;;;;;93.00;42.10;;;-1.00;99.90;;;;;;6163743;23;20508;-79
2021/12/11 04:40:43;;;;;;;86.95;36.90;;;-0.90;99.90;;;;;;6187976;23;20074;-79
2021/12/11 04:43:17;;;;;;;91.97;39.45;;;-1.00;99.90;;;;;;6215374;23;20029;-79
2021/12/11 04:45:51;;;;;;;86.90;39.05;;;-1.10;99.90;;;;;;6188130;23;20052;-79
2021/12/11 04:48:54;;;;;;;74.40;33.80;;;-1.10;99.90;;;;;;6188182;23;20036;-79
2021/12/11 04:51:32;;;;;;;67.37;29.80;;;-1.20;99.90;;;;;;6187830;23;20352;-79
2021/12/11 05:03:24;;;;;;;75.53;31.92;;;-1.50;99.90;;;;;;6187731;23;19912;-78
2021/12/11 05:10:25;;;;;;;81.63;33.08;;;-1.40;99.90;;;;;;6213962;23;20031;-79
2021/12/11 05:12:55;;;;;;;73.30;30.30;;;-1.50;99.90;;;;;;6188159;23;20448;-79
2021/12/11 05:15:25;;;;;;;72.13;31.65;;;-1.50;99.90;;;;;;6162615;23;20092;-78
2021/12/11 05:17:52;;;;;;;90.20;34.60;;;-1.50;99.90;;;;;;6187942;23;20452;-79
2021/12/11 05:20:21;;;;;;;81.68;34.20;;;-1.50;99.90;;;;;;6187654;23;20093;-79
2021/12/11 05:22:47;;;;;;;88.72;34.70;;;-1.50;99.90;;;;;;6187503;23;20122;-79
2021/12/11 05:25:14;;;;;;;91.53;35.50;;;-1.40;99.90;;;;;;6213029;23;20025;-80
2021/12/11 05:27:41;;;;;;;91.72;37.67;;;-1.40;99.90;;;;;;6186716;23;20025;-79
2021/12/11 05:30:14;;;;;;;86.78;34.78;;;-1.40;99.90;;;;;;6213003;23;20056;-79
2021/12/11 05:33:00;;;;;;;89.78;36.55;;;-1.40;99.90;;;;;;6187040;23;20025;-79
2021/12/11 05:35:27;;;;;;;93.53;37.45;;;-1.40;99.90;;;;;;6187145;23;20043;-79
2021/12/11 05:37:54;;;;;;;98.18;40.10;;;-1.40;99.90;;;;;;6213558;23;20025;-79
2021/12/11 05:40:22;;;;;;;113.60;41.95;;;-1.30;99.90;;;;;;6188006;23;20463;-79
2021/12/11 05:42:49;;;;;;;106.10;40.47;;;-1.30;99.90;;;;;;6163385;23;20468;-79
2021/12/11 05:45:16;;;;;;;105.72;41.05;;;-1.20;99.90;;;;;;6187861;23;20024;-79
2021/12/11 05:47:43;;;;;;;105.38;41.83;;;-1.10;99.90;;;;;;6214756;23;20016;-79
2021/12/11 05:50:13;;;;;;;102.60;39.55;;;-1.00;99.90;;;;;;6187845;23;20032;-79
2021/12/11 05:52:39;;;;;;;89.53;38.05;;;-1.00;99.90;;;;;;6164230;23;20028;-79
2021/12/11 05:55:08;;;;;;;103.32;39.17;;;-1.00;99.90;;;;;;6217807;23;20048;-79
2021/12/11 05:57:36;;;;;;;95.80;37.70;;;-1.00;99.90;;;;;;6188510;23;20031;-79
2021/12/11 06:00:07;;;;;;;80.82;34.95;;;-1.10;99.90;;;;;;6187360;23;20460;-79
2021/12/11 06:02:33;;;;;;;79.47;34.17;;;-1.10;99.90;;;;;;6187432;23;20522;-79
2021/12/11 06:04:59;;;;;;;80.03;35.28;;;-1.20;99.90;;;;;;6187232;23;20234;-79
2021/12/11 06:07:28;;;;;;;72.57;30.70;;;-1.20;99.90;;;;;;6162376;23;20016;-79
2021/12/11 06:10:01;;;;;;;70.22;32.08;;;-1.30;99.90;;;;;;6187383;23;20028;-79
2021/12/11 06:12:30;;;;;;;73.75;32.05;;;-1.40;99.90;;;;;;6186907;23;20020;-79
2021/12/11 06:15:12;;;;;;;61.10;27.63;;;-1.50;99.90;;;;;;6187056;23;20063;-79
2021/12/11 06:17:41;;;;;;;65.15;30.48;;;-1.50;99.90;;;;;;6162687;23;20100;-79
2021/12/11 06:20:10;;;;;;;76.53;34.58;;;-1.60;99.90;;;;;;6162256;23;20017;-79
2021/12/11 06:22:36;;;;;;;68.65;30.52;;;-1.60;99.90;;;;;;6186933;23;20026;-79
2021/12/11 06:25:16;;;;;;;77.90;34.20;;;-1.60;99.90;;;;;;6185969;23;20025;-79
2021/12/11 06:27:43;;;;;;;74.95;35.33;;;-1.70;99.90;;;;;;6187214;22;20024;-79
2021/12/11 06:30:14;;;;;;;68.50;29.17;;;-1.70;99.90;;;;;;6212516;23;20027;-79
2021/12/11 06:32:41;;;;;;;91.63;38.15;;;-1.60;99.90;;;;;;6187457;23;20025;-78
2021/12/11 06:35:17;;;;;;;69.43;30.27;;;-1.60;99.90;;;;;;6188307;23;20024;-79
2021/12/11 06:38:10;;;;;;;66.35;29.25;;;-1.60;99.90;;;;;;6215008;23;20031;-79
2021/12/11 06:40:54;;;;;;;84.45;34.05;;;-1.70;99.90;;;;;;6155447;23;20025;-79
2021/12/11 06:43:21;;;;;;;68.43;30.70;;;-1.70;99.90;;;;;;6155954;23;20028;-79
2021/12/11 06:45:49;;;;;;;73.88;31.90;;;-1.70;99.90;;;;;;6155614;23;20172;-79
2021/12/11 06:48:16;;;;;;;67.80;30.05;;;-1.70;99.90;;;;;;6131553;23;20021;-79
2021/12/11 06:50:43;;;;;;;76.18;32.65;;;-1.70;99.90;;;;;;6155777;23;20029;-79
2021/12/11 06:53:17;;;;;;;66.75;31.45;;;-1.70;99.90;;;;;;6156114;23;20029;-79
2021/12/11 06:55:45;;;;;;;91.40;36.25;;;-1.70;99.90;;;;;;6131905;23;20032;-79
2021/12/11 06:58:10;;;;;;;72.38;31.77;;;-1.60;99.90;;;;;;6181114;23;20021;-78
2021/12/11 07:00:39;;;;;;;72.65;32.63;;;-1.60;99.90;;;;;;6128074;23;20032;-78
2021/12/11 07:03:05;;;;;;;76.13;33.30;;;-1.70;99.90;;;;;;6157211;23;20133;-78
2021/12/11 07:05:33;;;;;;;78.95;34.42;;;-1.60;99.90;;;;;;6158129;23;20079;-78
2021/12/11 07:07:59;;;;;;;105.57;39.08;;;-1.50;99.90;;;;;;6133528;23;20165;-78
2021/12/11 07:10:25;;;;;;;83.57;36.90;;;-1.50;99.90;;;;;;6158372;23;20021;-79
2021/12/11 07:12:50;;;;;;;95.05;36.50;;;-1.50;99.90;;;;;;6184466;23;20083;-79
2021/12/11 07:15:17;;;;;;;92.65;38.95;;;-1.50;99.90;;;;;;6135294;23;20125;-79
2021/12/11 07:17:42;;;;;;;75.80;33.38;;;-1.50;99.90;;;;;;6158447;23;20025;-79
2021/12/11 07:20:12;;;;;;;88.05;37.22;;;-1.50;99.90;;;;;;6158092;23;20021;-79
2021/12/11 07:22:41;;;;;;;81.78;34.28;;;-1.50;99.90;;;;;;6133502;23;20028;-78
2021/12/11 07:25:17;;;;;;;84.55;36.38;;;-1.50;99.90;;;;;;6182523;23;20109;-79
2021/12/11 07:27:46;;;;;;;100.28;40.38;;;-1.50;99.90;;;;;;6188692;23;20095;-79
2021/12/11 07:30:12;;;;;;;103.55;40.53;;;-1.40;99.90;;;;;;6160165;23;20063;-79
2021/12/11 07:32:38;;;;;;;110.47;42.30;;;-1.30;99.90;;;;;;6159389;23;20018;-78
2021/12/11 07:35:10;;;;;;;123.18;44.13;;;-1.20;99.90;;;;;;6158537;23;20025;-79
2021/12/11 07:37:49;;;;;;;108.85;42.00;;;-1.20;99.90;;;;;;6135954;23;20052;-79
2021/12/11 07:40:15;;;;;;;111.82;41.45;;;-1.20;99.90;;;;;;6158794;23;20031;-79
2021/12/11 07:42:44;;;;;;;117.78;45.60;;;-1.10;99.90;;;;;;6134315;23;20091;-79
2021/12/11 07:45:10;;;;;;;123.80;46.50;;;-1.00;99.90;;;;;;6133708;23;20487;-79
2021/12/11 07:47:36;;;;;;;118.78;43.40;;;-1.00;99.90;;;;;;6158551;23;20017;-78
2021/12/11 07:50:03;;;;;;;107.45;42.60;;;-1.00;99.90;;;;;;6134017;23;20021;-78
2021/12/11 07:52:31;;;;;;;111.78;42.22;;;-0.90;99.90;;;;;;6158807;23;20036;-78
2021/12/11 07:54:56;;;;;;;120.45;47.83;;;-0.80;99.90;;;;;;6159056;23;20033;-78
2021/12/11 07:57:30;;;;;;;129.57;45.63;;;-0.80;99.90;;;;;;6159294;23;20384;-79
2021/12/11 07:59:57;;;;;;;115.00;45.65;;;-0.80;99.90;;;;;;6139036;23;20025;-78
2021/12/11 08:02:24;;;;;;;119.60;46.33;;;-0.70;99.90;;;;;;6163272;23;20052;-79
2021/12/11 08:04:50;;;;;;;118.90;45.38;;;-0.70;99.90;;;;;;6134299;23;20021;-79
2021/12/11 08:07:17;;;;;;;112.18;44.33;;;-0.60;99.90;;;;;;6158536;23;20021;-80
2021/12/11 08:09:43;;;;;;;114.90;45.33;;;-0.60;99.90;;;;;;6158381;23;20029;-79
2021/12/11 08:12:09;;;;;;;116.53;45.28;;;-0.50;99.90;;;;;;6159120;23;20084;-79
2021/12/11 08:14:35;;;;;;;113.95;42.50;;;-0.50;99.90;;;;;;6159422;23;20099;-79
2021/12/11 08:17:06;;;;;;;117.93;42.28;;;-0.50;99.90;;;;;;6159395;23;20103;-79
2021/12/11 08:19:35;;;;;;;99.55;41.67;;;-0.50;99.90;;;;;;6159310;23;20079;-79
2021/12/11 08:22:04;;;;;;;124.38;44.28;;;-0.40;99.90;;;;;;6134470;23;20047;-79
2021/12/11 08:24:30;;;;;;;117.28;43.40;;;-0.40;99.90;;;;;;6159094;23;20025;-78
2021/12/11 08:27:00;;;;;;;103.15;42.58;;;-0.30;99.90;;;;;;6134504;23;20037;-79
2021/12/11 08:29:27;;;;;;;110.28;43.47;;;-0.30;99.90;;;;;;6172882;23;20453;-79
2021/12/11 08:31:55;;;;;;;96.82;39.50;;;-0.30;99.90;;;;;;6183576;23;20017;-79
2021/12/11 08:34:21;;;;;;;110.30;42.25;;;-0.20;99.90;;;;;;6158698;23;20404;-79
2021/12/11 08:36:48;;;;;;;114.10;42.90;;;-0.10;99.90;;;;;;6158901;23;20021;-79
2021/12/11 08:39:18;;;;;;;104.38;39.95;;;-0.10;99.90;;;;;;6159080;23;20025;-79
2021/12/11 08:41:50;;;;;;;102.63;38.28;;;-0.10;99.90;;;;;;6161693;23;20076;-79
2021/12/11 08:44:25;;;;;;;88.15;37.08;;;0.00;99.90;;;;;;6188859;23;20027;-80
2021/12/11 08:46:57;;;;;;;91.85;39.65;;;0.00;99.90;;;;;;6136584;23;20469;-78
2021/12/11 08:49:27;;;;;;;99.75;41.25;;;0.10;99.90;;;;;;6158307;23;20021;-79
2021/12/11 08:52:06;;;;;;;100.03;38.95;;;0.20;99.90;;;;;;6183250;23;20409;-79
2021/12/11 08:54:32;;;;;;;87.68;35.35;;;0.30;99.90;;;;;;6182918;23;20021;-78
2021/12/11 08:57:15;;;;;;;93.50;35.83;;;0.40;99.90;;;;;;6158183;23;20025;-79
2021/12/11 09:00:28;;;;;;;87.75;35.95;;;0.50;99.90;;;;;;6158400;23;20028;-79
2021/12/11 09:03:27;;;;;;;76.53;34.95;;;0.60;99.90;;;;;;6155249;23;20025;-79
2021/12/11 09:06:09;;;;;;;87.88;37.67;;;0.80;99.90;;;;;;6158053;23;20462;-79
2021/12/11 09:08:58;;;;;;;73.05;32.50;;;0.90;99.90;;;;;;6157773;23;20024;-79
2021/12/11 09:11:49;;;;;;;78.10;33.03;;;1.00;99.90;;;;;;6185355;23;20057;-79
2021/12/11 09:14:41;;;;;;;78.63;33.15;;;1.20;99.90;;;;;;6155549;23;20101;-79
2021/12/11 09:17:22;;;;;;;70.40;33.28;;;1.30;99.90;;;;;;6162255;23;20021;-80
2021/12/11 09:19:53;;;;;;;64.22;31.17;;;1.40;99.90;;;;;;6183658;23;20040;-80
2021/12/11 09:22:47;;;;;;;58.00;29.40;;;1.50;99.90;;;;;;6157881;23;20465;-79
2021/12/11 09:25:26;;;;;;;59.55;28.80;;;1.50;99.90;;;;;;6183345;23;20096;-80
2021/12/11 09:28:09;;;;;;;55.50;26.95;;;1.50;99.90;;;;;;6157940;23;20020;-80
2021/12/11 09:30:41;;;;;;;51.97;26.52;;;1.40;99.90;;;;;;6157835;23;20025;-80
2021/12/11 09:33:12;;;;;;;48.38;25.42;;;1.40;99.90;;;;;;6133254;23;20020;-80
2021/12/11 09:35:49;;;;;;;53.58;25.33;;;1.40;99.90;;;;;;6158253;23;20393;-80
2021/12/11 09:38:21;;;;;;;45.97;25.88;;;1.40;99.90;;;;;;6157819;23;20337;-80
2021/12/11 09:40:55;;;;;;;62.25;27.70;;;1.50;99.90;;;;;;6184310;23;20052;-80
2021/12/11 09:43:44;;;;;;;56.60;29.42;;;1.80;99.90;;;;;;6158325;23;20037;-81
2021/12/11 09:46:13;;;;;;;50.00;26.08;;;2.20;99.90;;;;;;6132829;23;20025;-81
2021/12/11 09:48:44;;;;;;;45.35;23.92;;;2.50;99.90;;;;;;6133365;23;20029;-81
2021/12/11 09:51:20;;;;;;;43.25;22.33;;;2.90;99.90;;;;;;6159198;23;20025;-81
2021/12/11 09:53:54;;;;;;;43.47;22.50;;;3.20;99.90;;;;;;6158112;23;20017;-82
2021/12/11 09:56:28;;;;;;;32.63;19.05;;;3.20;99.90;;;;;;6157794;23;20025;-82
2021/12/11 09:59:00;;;;;;;30.23;17.85;;;3.20;99.90;;;;;;6158521;23;20475;-82
2021/12/11 10:01:31;;;;;;;33.95;19.45;;;2.90;99.90;;;;;;6158088;23;20027;-82
2021/12/11 10:04:05;;;;;;;28.83;16.98;;;2.80;99.90;;;;;;6138666;23;20021;-84
2021/12/11 10:09:29;;;;;;;33.20;20.13;;;2.90;99.90;;;;;;6117241;23;20028;-83
2021/12/11 10:12:08;;;;;;;29.13;16.17;;;2.90;99.90;;;;;;6157576;23;20021;-83
2021/12/11 10:14:51;;;;;;;35.42;18.98;;;3.00;99.90;;;;;;6157318;23;20496;-83
2021/12/11 10:17:26;;;;;;;29.35;16.98;;;3.30;99.90;;;;;;6157712;23;20121;-83
2021/12/11 10:19:56;;;;;;;34.25;18.08;;;3.40;99.90;;;;;;6157982;23;20032;-82
2021/12/11 10:22:31;;;;;;;27.75;17.30;;;3.50;99.90;;;;;;6157761;23;20032;-83
2021/12/11 10:24:59;;;;;;;28.85;16.42;;;3.40;99.90;;;;;;6157848;23;20017;-83
2021/12/11 10:27:29;;;;;;;35.72;16.92;;;3.20;99.90;;;;;;6157925;23;20079;-82
2021/12/11 10:29:59;;;;;;;33.22;16.73;;;3.00;99.90;;;;;;6183103;23;20353;-83
2021/12/11 10:32:32;;;;;;;30.23;17.33;;;2.90;99.90;;;;;;6161890;23;20055;-83
2021/12/11 10:35:04;;;;;;;36.95;17.38;;;2.70;99.90;;;;;;6162955;23;20025;-82
2021/12/11 10:37:36;;;;;;;33.22;16.55;;;2.70;99.90;;;;;;6187478;23;20020;-83
2021/12/11 10:40:23;;;;;;;29.60;16.05;;;2.60;99.90;;;;;;6187602;23;20021;-83
2021/12/11 10:43:18;;;;;;;31.00;16.50;;;2.60;99.90;;;;;;6188002;23;20040;-83
2021/12/11 10:45:51;;;;;;;32.10;15.93;;;2.70;99.90;;;;;;6159146;23;20468;-82
2021/12/11 10:48:25;;;;;;;34.22;17.48;;;2.60;99.90;;;;;;6188010;23;20013;-83
2021/12/11 10:51:00;;;;;;;25.67;16.42;;;2.70;99.90;;;;;;6190070;23;20052;-83
2021/12/11 10:53:34;;;;;;;30.45;17.23;;;2.70;99.90;;;;;;6194486;23;20017;-82
2021/12/11 10:56:07;;;;;;;38.60;18.67;;;2.80;99.90;;;;;;6162601;23;20024;-82
2021/12/11 10:58:38;;;;;;;29.73;18.30;;;2.90;99.90;;;;;;6186808;23;20340;-82
2021/12/11 11:01:16;;;;;;;30.65;18.67;;;3.20;99.90;;;;;;6186335;23;20024;-83
2021/12/11 11:03:52;;;;;;;28.42;16.67;;;3.40;99.90;;;;;;6187678;23;20051;-83
2021/12/11 11:06:21;;;;;;;28.42;17.05;;;3.40;99.90;;;;;;6161825;23;20155;-83
2021/12/11 11:08:48;;;;;;;32.25;17.55;;;3.40;99.90;;;;;;6161792;23;20021;-83
2021/12/11 11:11:20;;;;;;;33.75;19.38;;;3.30;99.90;;;;;;6163018;23;20021;-83
2021/12/11 11:13:48;;;;;;;27.67;16.92;;;3.30;99.90;;;;;;6213903;23;20518;-83
2021/12/11 11:16:16;;;;;;;26.17;17.02;;;3.30;99.90;;;;;;6162167;23;20031;-83
2021/12/11 11:18:42;;;;;;;35.47;16.98;;;3.30;99.90;;;;;;6187195;23;20024;-82
2021/12/11 11:21:31;;;;;;;34.00;18.02;;;3.30;99.90;;;;;;6214536;23;20023;-83
2021/12/11 11:23:57;;;;;;;31.55;18.25;;;3.30;99.90;;;;;;6211433;23;20024;-82
2021/12/11 11:26:28;;;;;;;36.50;18.92;;;3.30;99.90;;;;;;6162871;23;20017;-83
2021/12/11 11:28:55;;;;;;;28.50;17.15;;;3.30;99.90;;;;;;6189663;23;20028;-84
2021/12/11 11:31:36;;;;;;;34.92;18.58;;;3.20;99.90;;;;;;6193814;23;20017;-84
2021/12/11 11:34:17;;;;;;;32.10;19.15;;;3.50;99.90;;;;;;6190402;23;20024;-82
2021/12/11 11:36:50;;;;;;;28.42;15.57;;;4.40;99.90;;;;;;6187833;23;20025;-83
2021/12/11 11:39:19;;;;;;;29.20;15.93;;;5.60;99.90;;;;;;6187722;23;20417;-83
2021/12/11 11:41:58;;;;;;;26.77;15.38;;;6.60;99.90;;;;;;6162498;23;20075;-83
2021/12/11 11:44:28;;;;;;;24.20;14.93;;;7.00;99.90;;;;;;6186895;23;20031;-83
2021/12/11 11:46:57;;;;;;;26.38;15.20;;;6.80;99.90;;;;;;6187803;23;20021;-83
2021/12/11 11:49:23;;;;;;;25.95;14.75;;;6.20;99.90;;;;;;6212927;23;20027;-83
2021/12/11 11:52:17;;;;;;;23.88;14.10;;;5.70;99.90;;;;;;6214561;23;20060;-83
2021/12/11 11:54:47;;;;;;;25.75;15.95;;;5.30;99.90;;;;;;6163415;23;20059;-83
2021/12/11 11:57:24;;;;;;;25.75;15.20;;;4.90;99.90;;;;;;6189178;23;20028;-83
2021/12/11 11:59:53;;;;;;;27.08;15.70;;;4.50;99.90;;;;;;6188481;23;20034;-82
2021/12/11 12:02:23;;;;;;;30.10;15.95;;;4.30;99.90;;;;;;6189078;23;20083;-83
2021/12/11 12:04:53;;;;;;;31.38;16.38;;;4.30;99.90;;;;;;6164594;23;20344;-83
2021/12/11 12:07:25;;;;;;;26.80;15.52;;;4.80;99.90;;;;;;6189520;23;20099;-83
2021/12/11 12:09:53;;;;;;;30.77;15.80;;;5.60;99.90;;;;;;6188121;23;20025;-83
2021/12/11 12:12:23;;;;;;;25.85;15.50;;;6.60;99.90;;;;;;6192600;23;20024;-84
2021/12/11 12:14:52;;;;;;;25.27;14.43;;;6.90;99.90;;;;;;6220861;23;20033;-83
2021/12/11 12:17:25;;;;;;;27.58;14.45;;;6.80;99.90;;;;;;6217922;23;20020;-82
2021/12/11 12:19:53;;;;;;;25.35;13.60;;;6.60;99.90;;;;;;6214522;23;20024;-83
2021/12/11 12:22:20;;;;;;;22.65;13.45;;;6.20;99.90;;;;;;6186532;23;20024;-83
2021/12/11 12:24:49;;;;;;;22.65;13.30;;;5.90;99.90;;;;;;6189848;23;20024;-82
2021/12/11 12:27:28;;;;;;;23.38;13.77;;;5.60;99.90;;;;;;6216470;23;20512;-82
2021/12/11 12:29:58;;;;;;;25.17;14.50;;;6.00;99.90;;;;;;6161822;23;20457;-81
2021/12/11 12:32:31;;;;;;;24.77;13.73;;;6.30;99.90;;;;;;6158880;23;20017;-82
2021/12/11 12:35:01;;;;;;;24.00;12.50;;;6.60;99.90;;;;;;6158245;23;20052;-83
2021/12/11 12:37:28;;;;;;;25.58;12.05;;;7.40;99.90;;;;;;6159363;23;20096;-83
2021/12/11 12:39:58;;;;;;;26.58;13.52;;;7.50;99.90;;;;;;6159606;23;20103;-83
2021/12/11 12:42:37;;;;;;;21.83;11.88;;;7.70;99.90;;;;;;6158042;23;20072;-82
2021/12/11 12:45:08;;;;;;;24.77;12.60;;;8.00;99.90;;;;;;6158775;23;20017;-82
2021/12/11 12:47:39;;;;;;;24.73;12.60;;;8.50;99.90;;;;;;6160917;23;20065;-83
2021/12/11 12:50:18;;;;;;;23.02;11.68;;;9.10;99.90;;;;;;6165396;23;20021;-82
2021/12/11 12:52:45;;;;;;;21.80;13.52;;;9.70;99.90;;;;;;6159858;23;20083;-84
2021/12/11 12:55:36;;;;;;;21.63;11.15;;;10.10;99.90;;;;;;6134773;23;20031;-83
2021/12/11 12:58:07;;;;;;;21.15;11.15;;;10.00;99.90;;;;;;6131077;23;20017;-84
2021/12/11 13:00:35;;;;;;;20.77;11.18;;;10.00;99.90;;;;;;6158668;23;20381;-83
2021/12/11 13:03:08;;;;;;;23.60;12.20;;;9.80;99.90;;;;;;6158832;23;20453;-84
2021/12/11 13:05:38;;;;;;;22.10;11.48;;;9.60;99.90;;;;;;6158941;23;20028;-84
2021/12/11 13:08:09;;;;;;;19.15;11.27;;;9.10;99.90;;;;;;6133974;23;20025;-83
2021/12/11 13:10:43;;;;;;;19.58;12.50;;;8.80;99.90;;;;;;6158685;23;20025;-83
2021/12/11 13:13:11;;;;;;;21.85;11.25;;;8.60;99.90;;;;;;6158570;23;20025;-84